Idledale, Colorado
Current Conditions -  °F | °C
As of 4:55 PM on Friday 28 Nov 2014 (Local Time) from KBJC Reporting Station
Broken Clouds Broken Clouds  
Wind Chill: 63°   Ceiling: 20000
Heat Index: 63°   Visibility: 50mi
Dew Point: 10°   Wind: 6mph
Humidity: 13%   Direction: 290°WNW
Pressure: 29.84"   Gusts: NA
Location:  39.67°N, 105.25°W
Report Text: KBJC 282355Z 29005KT 50SM BKN200 17/M12 A2984
Loading
Personal Weather Stations






























Interactive Weather Map New forecast layout! Learn more

10-Day Weather Forecast

Advertisements
Track Severe Weather on mobile